Time;durP1;ratioP1;P1;durP2;ratioP2;P2;SDS_P1;SDS_P2;PMS_P1;PMS_P2;Temp;Humidity;BMP_temperature;BMP_pressure;BME280_temperature;BME280_humidity;BME280_pressure;Samples;Min_cycle;Max_cycle;Signal;HPM_P1;HPM_P2
2021/07/30 00:01:23;;;;;;;9.02;3.25;;;;;;;;;;5034819;28;20040;-85
2021/07/30 00:03:49;;;;;;;4.75;2.97;;;;;;;;;;5034891;28;20470;-85
2021/07/30 00:06:15;;;;;;;5.72;3.10;;;;;;;;;;5034668;28;20056;-85
2021/07/30 00:08:41;;;;;;;4.18;2.80;;;;;;;;;;5034110;28;20030;-87
2021/07/30 00:11:08;;;;;;;6.43;3.13;;;;;;;;;;5033486;28;20497;-86
2021/07/30 00:13:34;;;;;;;5.05;3.00;;;;;;;;;;5033848;28;20379;-86
2021/07/30 00:16:00;;;;;;;5.57;3.33;;;;;;;;;;5033731;28;20531;-87
2021/07/30 00:18:27;;;;;;;9.43;3.13;;;;;;;;;;5034961;28;20057;-87
2021/07/30 00:20:53;;;;;;;6.03;3.03;;;;;;;;;;5035140;28;20029;-85
2021/07/30 00:23:19;;;;;;;5.35;3.20;;;;;;;;;;5034707;28;20100;-85
2021/07/30 00:25:46;;;;;;;6.43;3.38;;;;;;;;;;5033133;28;20025;-85
2021/07/30 00:28:12;;;;;;;5.47;3.42;;;;;;;;;;5033983;28;20076;-85
2021/07/30 00:30:38;;;;;;;6.18;3.20;;;;;;;;;;5034042;28;20029;-86
2021/07/30 00:33:05;;;;;;;5.47;3.13;;;;;;;;;;5034855;28;20470;-85
2021/07/30 00:35:31;;;;;;;10.65;4.03;;;;;;;;;;5033597;28;20094;-85
2021/07/30 00:37:57;;;;;;;5.55;2.65;;;;;;;;;;5035125;28;20033;-85
2021/07/30 00:40:23;;;;;;;6.18;3.10;;;;;;;;;;5032900;28;20029;-85
2021/07/30 00:42:53;;;;;;;5.72;3.42;;;;;;;;;;5035008;28;20140;-84
2021/07/30 00:45:20;;;;;;;6.13;3.05;;;;;;;;;;5033241;28;20036;-84
2021/07/30 00:47:48;;;;;;;5.03;3.28;;;;;;;;;;5033358;28;20071;-87
2021/07/30 00:50:14;;;;;;;5.90;3.13;;;;;;;;;;5033250;28;20029;-85
2021/07/30 00:52:41;;;;;;;6.90;3.10;;;;;;;;;;5034165;28;20033;-84
2021/07/30 00:55:09;;;;;;;5.97;3.17;;;;;;;;;;5033606;28;20474;-84
2021/07/30 00:57:35;;;;;;;10.43;3.20;;;;;;;;;;5034001;28;20021;-84
2021/07/30 01:00:02;;;;;;;5.55;3.00;;;;;;;;;;5033311;28;20030;-84
2021/07/30 01:02:28;;;;;;;6.45;2.75;;;;;;;;;;5033056;28;20041;-85
2021/07/30 01:04:54;;;;;;;6.15;3.08;;;;;;;;;;5034998;28;20071;-86
2021/07/30 01:07:21;;;;;;;5.72;3.00;;;;;;;;;;5033313;28;20049;-86
2021/07/30 01:09:47;;;;;;;5.40;3.35;;;;;;;;;;5034187;28;20057;-85
2021/07/30 01:12:14;;;;;;;9.32;2.92;;;;;;;;;;5032604;28;20028;-85
2021/07/30 01:14:41;;;;;;;5.80;3.15;;;;;;;;;;5034933;28;20463;-85
2021/07/30 01:17:07;;;;;;;7.93;3.35;;;;;;;;;;5034318;28;20021;-86
2021/07/30 01:19:33;;;;;;;7.20;3.58;;;;;;;;;;5032767;28;20538;-85
2021/07/30 01:22:01;;;;;;;5.10;3.20;;;;;;;;;;5032716;28;20386;-87
2021/07/30 01:24:29;;;;;;;6.72;3.40;;;;;;;;;;5033213;28;20041;-85
2021/07/30 01:26:56;;;;;;;9.93;3.58;;;;;;;;;;5032532;28;20478;-86
2021/07/30 01:29:24;;;;;;;9.23;3.25;;;;;;;;;;5032928;28;20034;-86
2021/07/30 01:31:51;;;;;;;7.93;3.67;;;;;;;;;;5033607;28;20026;-87
2021/07/30 01:34:17;;;;;;;5.22;3.40;;;;;;;;;;5032887;28;20067;-86
2021/07/30 01:36:43;;;;;;;7.05;3.22;;;;;;;;;;5038272;28;20025;-86
2021/07/30 01:39:09;;;;;;;5.13;2.95;;;;;;;;;;5037067;28;20029;-86
2021/07/30 01:41:35;;;;;;;9.55;3.13;;;;;;;;;;5036548;28;20021;-85
2021/07/30 01:44:02;;;;;;;4.90;3.35;;;;;;;;;;5037936;28;20067;-85
2021/07/30 01:46:28;;;;;;;6.03;3.25;;;;;;;;;;5038998;28;20032;-86
2021/07/30 01:48:54;;;;;;;5.72;3.47;;;;;;;;;;5036625;28;20033;-84
2021/07/30 01:51:21;;;;;;;4.88;3.00;;;;;;;;;;5037571;28;20030;-85
2021/07/30 01:53:47;;;;;;;7.50;3.35;;;;;;;;;;5037561;28;20104;-86
2021/07/30 01:56:13;;;;;;;5.07;3.30;;;;;;;;;;5038159;28;20071;-86
2021/07/30 01:58:40;;;;;;;6.25;3.30;;;;;;;;;;5043081;28;20037;-85
2021/07/30 02:01:06;;;;;;;5.97;3.20;;;;;;;;;;5038037;28;20474;-86
2021/07/30 02:03:32;;;;;;;6.15;3.65;;;;;;;;;;5036206;28;20486;-85
2021/07/30 02:05:59;;;;;;;9.45;3.08;;;;;;;;;;5037411;28;20057;-85
2021/07/30 02:08:25;;;;;;;8.35;3.50;;;;;;;;;;5038080;28;20364;-86
2021/07/30 02:10:53;;;;;;;10.23;3.72;;;;;;;;;;5037214;28;20039;-85
2021/07/30 02:16:05;;;;;;;9.40;3.35;;;;;;;;;;5036961;28;20095;-85
2021/07/30 02:18:31;;;;;;;7.28;3.50;;;;;;;;;;5037858;28;20025;-86
2021/07/30 02:20:57;;;;;;;5.10;2.95;;;;;;;;;;5037419;28;20085;-85
2021/07/30 02:23:24;;;;;;;6.50;3.20;;;;;;;;;;5040191;28;20100;-86
2021/07/30 02:25:50;;;;;;;5.78;3.33;;;;;;;;;;5035625;28;20026;-86
2021/07/30 02:28:17;;;;;;;6.40;3.47;;;;;;;;;;5037393;28;20022;-85
2021/07/30 02:30:43;;;;;;;7.05;3.92;;;;;;;;;;5035327;28;20116;-86
2021/07/30 02:33:09;;;;;;;8.27;3.67;;;;;;;;;;5035979;28;20025;-85
2021/07/30 02:35:35;;;;;;;8.50;3.60;;;;;;;;;;5036372;28;20033;-86
2021/07/30 02:38:01;;;;;;;7.97;3.58;;;;;;;;;;5035080;28;20400;-86
2021/07/30 02:40:28;;;;;;;4.93;2.92;;;;;;;;;;5038651;28;20033;-86
2021/07/30 02:42:54;;;;;;;10.07;3.58;;;;;;;;;;5037356;28;20017;-84
2021/07/30 02:45:21;;;;;;;8.57;3.22;;;;;;;;;;5035976;28;20037;-85
2021/07/30 02:47:47;;;;;;;5.90;3.33;;;;;;;;;;5034964;28;20471;-86
2021/07/30 02:50:13;;;;;;;5.78;3.38;;;;;;;;;;5038174;28;20022;-86
2021/07/30 02:52:39;;;;;;;6.05;3.45;;;;;;;;;;5036755;28;20057;-87
2021/07/30 02:55:06;;;;;;;7.40;3.20;;;;;;;;;;5035870;28;20030;-86
2021/07/30 02:57:32;;;;;;;5.10;3.20;;;;;;;;;;5035601;28;20025;-87
2021/07/30 03:00:00;;;;;;;10.20;3.67;;;;;;;;;;5035146;28;20041;-86
2021/07/30 03:02:27;;;;;;;6.05;3.28;;;;;;;;;;5034931;28;20022;-86
2021/07/30 03:04:53;;;;;;;7.32;3.67;;;;;;;;;;5035600;28;20037;-86
2021/07/30 03:07:19;;;;;;;7.50;3.88;;;;;;;;;;5036746;28;20095;-86
2021/07/30 03:09:46;;;;;;;4.95;3.05;;;;;;;;;;5035695;28;20116;-86
2021/07/30 03:12:12;;;;;;;5.28;3.45;;;;;;;;;;5035747;28;20030;-86
2021/07/30 03:14:38;;;;;;;6.10;3.53;;;;;;;;;;5034837;28;20433;-86
2021/07/30 03:17:06;;;;;;;7.28;3.13;;;;;;;;;;5035257;28;20051;-86
2021/07/30 03:19:33;;;;;;;5.43;3.40;;;;;;;;;;5035756;28;20470;-86
2021/07/30 03:21:59;;;;;;;7.90;3.47;;;;;;;;;;5035397;28;20048;-86
2021/07/30 03:24:26;;;;;;;5.30;3.58;;;;;;;;;;5034930;28;20379;-86
2021/07/30 03:26:52;;;;;;;5.47;3.58;;;;;;;;;;5034817;28;20036;-86
2021/07/30 03:29:20;;;;;;;6.47;3.10;;;;;;;;;;5034279;28;20033;-86
2021/07/30 03:31:47;;;;;;;7.65;3.60;;;;;;;;;;5034648;28;20017;-86
2021/07/30 03:34:17;;;;;;;6.15;3.85;;;;;;;;;;5036681;28;20360;-86
2021/07/30 03:36:44;;;;;;;5.45;3.53;;;;;;;;;;5034932;28;20021;-86
2021/07/30 03:39:11;;;;;;;6.32;3.58;;;;;;;;;;5035985;28;20103;-86
2021/07/30 03:41:37;;;;;;;5.47;3.42;;;;;;;;;;5035942;28;20022;-85
2021/07/30 03:44:04;;;;;;;4.65;3.30;;;;;;;;;;5036018;28;20037;-86
2021/07/30 03:46:30;;;;;;;5.22;3.28;;;;;;;;;;5035832;28;20025;-85
2021/07/30 03:48:56;;;;;;;6.05;3.65;;;;;;;;;;5049035;28;20021;-84
2021/07/30 03:51:23;;;;;;;9.32;3.65;;;;;;;;;;5047040;28;20156;-85
2021/07/30 03:53:49;;;;;;;7.85;3.90;;;;;;;;;;5036121;28;20110;-86
2021/07/30 03:56:18;;;;;;;7.13;3.70;;;;;;;;;;5031745;28;20121;-85
2021/07/30 03:58:46;;;;;;;6.60;3.72;;;;;;;;;;5034174;28;20108;-85
2021/07/30 04:01:12;;;;;;;7.80;3.88;;;;;;;;;;5033855;28;20029;-85
2021/07/30 04:03:39;;;;;;;6.68;3.63;;;;;;;;;;5034454;28;20063;-84
2021/07/30 04:06:06;;;;;;;6.90;3.72;;;;;;;;;;5035352;28;20088;-85
2021/07/30 04:08:35;;;;;;;10.38;3.55;;;;;;;;;;5033941;28;20025;-87
2021/07/30 04:11:02;;;;;;;7.78;3.20;;;;;;;;;;5033938;28;20128;-85
2021/07/30 04:13:29;;;;;;;7.13;3.65;;;;;;;;;;5035031;28;20036;-86
2021/07/30 04:16:00;;;;;;;7.78;3.55;;;;;;;;;;5034954;28;20025;-85
2021/07/30 04:18:27;;;;;;;15.10;3.90;;;;;;;;;;5033560;28;20026;-85
2021/07/30 04:20:53;;;;;;;6.72;3.60;;;;;;;;;;5033897;28;20083;-86
2021/07/30 04:23:20;;;;;;;5.18;3.22;;;;;;;;;;5034865;28;20032;-86
2021/07/30 04:25:46;;;;;;;10.40;3.35;;;;;;;;;;5033873;28;20122;-86
2021/07/30 04:28:12;;;;;;;7.28;3.10;;;;;;;;;;5033836;28;20026;-86
2021/07/30 04:30:38;;;;;;;13.57;3.38;;;;;;;;;;5033944;28;20048;-85
2021/07/30 04:33:07;;;;;;;7.43;3.45;;;;;;;;;;5032774;28;20025;-86
2021/07/30 04:35:36;;;;;;;8.77;3.60;;;;;;;;;;5033965;28;20036;-87
2021/07/30 04:38:03;;;;;;;7.10;3.60;;;;;;;;;;5033440;28;20069;-86
2021/07/30 04:40:30;;;;;;;4.90;2.47;;;;;;;;;;5035690;28;20026;-87
2021/07/30 04:42:57;;;;;;;11.13;2.90;;;;;;;;;;5033602;28;20047;-88
2021/07/30 04:45:23;;;;;;;3.83;2.10;;;;;;;;;;5033248;28;20490;-89
2021/07/30 04:47:49;;;;;;;4.32;2.13;;;;;;;;;;5032996;28;20017;-86
2021/07/30 04:50:15;;;;;;;3.80;2.25;;;;;;;;;;5033976;28;20121;-85
2021/07/30 04:52:41;;;;;;;4.68;2.55;;;;;;;;;;5033289;28;20478;-86
2021/07/30 04:55:07;;;;;;;8.13;2.20;;;;;;;;;;5033333;28;20390;-85
2021/07/30 04:57:33;;;;;;;3.28;1.70;;;;;;;;;;5032988;28;20109;-85
2021/07/30 05:00:00;;;;;;;4.70;2.20;;;;;;;;;;5033278;28;20025;-87
2021/07/30 05:02:26;;;;;;;9.55;2.13;;;;;;;;;;5032759;28;20176;-87
2021/07/30 05:04:55;;;;;;;3.55;2.13;;;;;;;;;;5036423;28;20048;-86
2021/07/30 05:07:22;;;;;;;6.82;2.50;;;;;;;;;;5033229;28;20061;-87
2021/07/30 05:09:48;;;;;;;4.80;2.20;;;;;;;;;;5033808;28;20025;-87
2021/07/30 05:12:15;;;;;;;11.18;2.28;;;;;;;;;;5034773;28;20493;-87
2021/07/30 05:14:42;;;;;;;4.60;2.35;;;;;;;;;;5033452;28;20026;-87
2021/07/30 05:17:08;;;;;;;4.30;2.30;;;;;;;;;;5032997;28;20026;-87
2021/07/30 05:19:35;;;;;;;3.50;2.33;;;;;;;;;;5032979;28;20022;-86
2021/07/30 05:22:01;;;;;;;3.65;2.13;;;;;;;;;;5034777;28;20525;-89
2021/07/30 05:24:27;;;;;;;6.15;2.47;;;;;;;;;;5033778;28;20072;-95
2021/07/30 05:26:54;;;;;;;3.85;1.95;;;;;;;;;;5025155;28;20041;-95
2021/07/30 05:29:20;;;;;;;4.40;2.20;;;;;;;;;;5013249;28;20036;-95
2021/07/30 05:31:46;;;;;;;3.92;2.00;;;;;;;;;;5013886;28;20403;-93
2021/07/30 05:34:12;;;;;;;7.47;2.30;;;;;;;;;;5023879;28;20044;-93
2021/07/30 05:36:38;;;;;;;5.10;2.28;;;;;;;;;;5036593;28;20034;-92
2021/07/30 05:39:04;;;;;;;3.30;2.10;;;;;;;;;;5029320;28;20028;-93
2021/07/30 05:41:31;;;;;;;2.47;1.83;;;;;;;;;;5014337;28;20082;-94
2021/07/30 05:43:57;;;;;;;3.35;2.08;;;;;;;;;;5014021;28;20096;-89
2021/07/30 05:46:23;;;;;;;6.85;2.20;;;;;;;;;;5013302;28;20022;-85
2021/07/30 05:48:52;;;;;;;4.97;2.20;;;;;;;;;;5012544;28;20026;-89
2021/07/30 05:51:18;;;;;;;3.45;2.00;;;;;;;;;;5012456;28;20379;-84
2021/07/30 05:53:44;;;;;;;5.45;2.22;;;;;;;;;;5013667;28;20048;-84
2021/07/30 05:56:11;;;;;;;4.20;2.17;;;;;;;;;;5016558;28;20029;-89
2021/07/30 05:58:53;;;;;;;6.88;2.17;;;;;;;;;;5015870;28;20029;-84
2021/07/30 06:01:19;;;;;;;;;;;;;;;;;;5018942;28;20033;-83
2021/07/30 06:03:45;;;;;;;6.18;2.00;;;;;;;;;;5014600;28;19914;-81
2021/07/30 06:06:11;;;;;;;7.05;2.08;;;;;;;;;;5015106;28;20411;-87
2021/07/30 06:08:57;;;;;;;4.03;2.40;;;;;;;;;;5025694;28;20053;-83
2021/07/30 06:11:23;;;;;;;6.93;2.20;;;;;;;;;;5019482;28;20394;-85
2021/07/30 06:13:52;;;;;;;3.25;2.20;;;;;;;;;;5013992;28;20025;-85
2021/07/30 06:16:21;;;;;;;4.32;2.45;;;;;;;;;;5016234;28;20447;-85
2021/07/30 06:18:47;;;;;;;7.47;2.28;;;;;;;;;;5015930;28;20458;-84
2021/07/30 06:21:16;;;;;;;3.75;2.22;;;;;;;;;;5019240;28;20057;-83
2021/07/30 06:23:45;;;;;;;5.93;2.40;;;;;;;;;;5021157;28;20038;-83
2021/07/30 06:26:14;;;;;;;3.65;2.10;;;;;;;;;;5025464;28;20030;-89
2021/07/30 06:28:43;;;;;;;9.35;2.53;;;;;;;;;;5021773;28;20053;-83
2021/07/30 06:31:09;;;;;;;4.80;2.60;;;;;;;;;;5021906;28;20024;-83
2021/07/30 06:33:36;;;;;;;5.70;3.13;;;;;;;;;;5041060;28;20032;-83
2021/07/30 06:36:07;;;;;;;5.97;2.63;;;;;;;;;;5043159;28;20015;-88
2021/07/30 06:38:36;;;;;;;4.85;2.75;;;;;;;;;;5042811;28;20040;-84
2021/07/30 06:41:02;;;;;;;4.95;3.00;;;;;;;;;;5043771;28;20033;-84
2021/07/30 06:43:46;;;;;;;4.88;3.05;;;;;;;;;;5040984;28;20025;-84
2021/07/30 06:46:16;;;;;;;3.90;2.70;;;;;;;;;;5042980;28;20036;-85
2021/07/30 06:48:46;;;;;;;4.93;2.60;;;;;;;;;;5043930;28;20481;-83
2021/07/30 06:51:21;;;;;;;7.27;2.67;;;;;;;;;;5044592;28;20105;-85
2021/07/30 06:53:51;;;;;;;8.20;2.40;;;;;;;;;;5045688;28;20033;-83
2021/07/30 06:56:36;;;;;;;3.75;2.30;;;;;;;;;;5048654;28;20108;-88
2021/07/30 06:59:02;;;;;;;3.60;2.50;;;;;;;;;;5048420;28;20559;-93
2021/07/30 07:01:34;;;;;;;3.78;2.22;;;;;;;;;;5036626;28;20083;-96
2021/07/30 07:04:00;;;;;;;3.55;2.53;;;;;;;;;;5036778;28;20039;-93
2021/07/30 07:06:28;;;;;;;5.15;2.17;;;;;;;;;;5036521;28;20049;-94
2021/07/30 07:08:56;;;;;;;6.25;2.97;;;;;;;;;;5036431;28;20398;-92
2021/07/30 07:11:22;;;;;;;4.15;2.58;;;;;;;;;;5036090;28;20481;-95
2021/07/30 07:13:49;;;;;;;8.70;2.30;;;;;;;;;;5037053;28;20471;-95
2021/07/30 07:16:22;;;;;;;3.88;2.42;;;;;;;;;;5038836;28;20037;-95
2021/07/30 07:18:48;;;;;;;3.58;2.40;;;;;;;;;;5038988;28;20045;-96
2021/07/30 07:21:15;;;;;;;4.22;2.20;;;;;;;;;;5036669;28;20036;-92
2021/07/30 07:23:44;;;;;;;4.68;2.33;;;;;;;;;;5036780;28;20171;-94
2021/07/30 07:26:10;;;;;;;3.75;2.08;;;;;;;;;;5035989;28;20038;-86
2021/07/30 07:28:36;;;;;;;3.97;2.45;;;;;;;;;;5038282;28;20030;-94
2021/07/30 07:31:02;;;;;;;6.53;2.40;;;;;;;;;;5040354;28;20034;-96
2021/07/30 07:33:28;;;;;;;5.65;2.67;;;;;;;;;;5047478;28;20033;-84
2021/07/30 07:35:55;;;;;;;4.13;2.40;;;;;;;;;;5046198;28;20108;-94
2021/07/30 07:38:23;;;;;;;4.97;2.97;;;;;;;;;;5041679;28;20026;-87
2021/07/30 07:40:51;;;;;;;4.03;2.47;;;;;;;;;;5040334;28;20044;-92
2021/07/30 07:43:17;;;;;;;3.80;2.20;;;;;;;;;;5037940;28;20017;-92
2021/07/30 07:45:43;;;;;;;4.85;2.00;;;;;;;;;;5035585;28;20231;-95
2021/07/30 07:48:19;;;;;;;5.85;2.75;;;;;;;;;;5037643;28;20049;-83
2021/07/30 07:50:45;;;;;;;3.53;2.03;;;;;;;;;;5035700;28;20040;-95
2021/07/30 07:53:15;;;;;;;5.10;2.60;;;;;;;;;;5036534;28;20033;-93
2021/07/30 07:55:41;;;;;;;11.95;2.75;;;;;;;;;;5036539;28;20386;-94
2021/07/30 07:58:08;;;;;;;5.85;2.30;;;;;;;;;;5033575;28;20024;-82
2021/07/30 08:00:34;;;;;;;7.60;2.10;;;;;;;;;;5034652;28;20033;-93
2021/07/30 08:03:00;;;;;;;5.43;1.95;;;;;;;;;;5035704;28;20033;-95
2021/07/30 08:05:26;;;;;;;5.13;2.25;;;;;;;;;;5035903;28;20075;-95
2021/07/30 08:07:52;;;;;;;3.33;1.83;;;;;;;;;;5035168;28;20033;-94
2021/07/30 08:10:18;;;;;;;5.70;2.42;;;;;;;;;;5035189;28;20029;-91
2021/07/30 08:12:44;;;;;;;4.75;1.95;;;;;;;;;;5034811;28;20033;-92
2021/07/30 08:15:11;;;;;;;4.70;1.85;;;;;;;;;;5034561;28;20022;-95
2021/07/30 08:17:37;;;;;;;4.22;2.20;;;;;;;;;;5035674;28;20126;-92
2021/07/30 08:20:04;;;;;;;9.88;1.92;;;;;;;;;;5035109;28;20025;-93
2021/07/30 08:22:30;;;;;;;4.68;2.38;;;;;;;;;;5035134;28;20029;-94
2021/07/30 08:24:56;;;;;;;5.10;2.15;;;;;;;;;;5034262;28;20084;-92
2021/07/30 08:27:22;;;;;;;6.18;2.70;;;;;;;;;;5035456;28;20100;-94
2021/07/30 08:29:49;;;;;;;4.55;2.40;;;;;;;;;;5033911;28;20466;-92
2021/07/30 08:32:17;;;;;;;6.18;2.80;;;;;;;;;;5033977;28;20029;-93
2021/07/30 08:34:49;;;;;;;3.83;2.22;;;;;;;;;;5034116;28;20040;-84
2021/07/30 08:37:26;;;;;;;4.50;1.83;;;;;;;;;;5035186;28;20453;-90
2021/07/30 08:39:56;;;;;;;6.53;2.40;;;;;;;;;;5035332;28;20034;-94
2021/07/30 08:42:22;;;;;;;3.10;2.22;;;;;;;;;;5034623;28;20045;-94
2021/07/30 08:44:48;;;;;;;3.03;1.90;;;;;;;;;;5033444;28;20046;-94
2021/07/30 08:47:14;;;;;;;4.85;2.30;;;;;;;;;;5034119;28;20051;-93
2021/07/30 08:49:40;;;;;;;4.03;2.10;;;;;;;;;;5033740;28;20025;-93
2021/07/30 08:52:10;;;;;;;3.17;2.10;;;;;;;;;;5034155;28;20026;-92
2021/07/30 08:54:36;;;;;;;5.03;2.42;;;;;;;;;;5034133;28;20041;-94
2021/07/30 08:57:06;;;;;;;3.95;2.30;;;;;;;;;;5034349;28;20025;-94
2021/07/30 08:59:32;;;;;;;3.40;2.00;;;;;;;;;;5034383;28;20041;-92
2021/07/30 09:01:58;;;;;;;4.65;2.20;;;;;;;;;;5033711;28;20025;-90
2021/07/30 09:04:28;;;;;;;3.63;2.05;;;;;;;;;;5033093;28;20087;-94
2021/07/30 09:06:54;;;;;;;4.43;2.03;;;;;;;;;;5033685;28;20080;-93
2021/07/30 09:09:21;;;;;;;4.63;2.13;;;;;;;;;;5035571;28;20028;-85
2021/07/30 09:11:47;;;;;;;3.20;2.15;;;;;;;;;;5033514;28;20473;-93
2021/07/30 09:14:13;;;;;;;7.93;2.38;;;;;;;;;;5033380;28;20022;-91
2021/07/30 09:16:55;;;;;;;4.10;2.20;;;;;;;;;;5034030;28;20030;-94
2021/07/30 09:19:24;;;;;;;3.78;2.28;;;;;;;;;;5034736;28;20465;-93
2021/07/30 09:22:03;;;;;;;16.67;3.00;;;;;;;;;;5033518;28;20504;-93
2021/07/30 09:24:36;;;;;;;4.65;2.33;;;;;;;;;;5033334;28;20034;-92
2021/07/30 09:27:03;;;;;;;6.57;2.08;;;;;;;;;;5033407;28;20043;-93
2021/07/30 09:29:31;;;;;;;4.70;2.30;;;;;;;;;;5034700;28;20029;-93
2021/07/30 09:32:02;;;;;;;3.47;2.30;;;;;;;;;;5034250;28;20029;-93
2021/07/30 09:34:29;;;;;;;4.80;2.40;;;;;;;;;;5042485;28;20085;-91
2021/07/30 09:36:59;;;;;;;5.47;2.22;;;;;;;;;;5044417;28;20033;-94
2021/07/30 09:39:27;;;;;;;2.83;2.07;;;;;;;;;;5033910;28;20017;-93
2021/07/30 09:41:54;;;;;;;5.85;2.47;;;;;;;;;;5033972;28;20037;-92
2021/07/30 09:44:20;;;;;;;3.20;2.20;;;;;;;;;;5033164;28;20544;-92
2021/07/30 09:47:06;;;;;;;5.35;2.03;;;;;;;;;;5034159;28;20390;-92
2021/07/30 09:49:36;;;;;;;5.40;1.95;;;;;;;;;;5033491;28;20033;-91
2021/07/30 09:52:03;;;;;;;3.20;2.17;;;;;;;;;;5033881;28;20022;-89
2021/07/30 09:54:31;;;;;;;4.20;1.95;;;;;;;;;;5034609;28;20057;-94
2021/07/30 09:56:57;;;;;;;3.78;2.17;;;;;;;;;;5036968;28;20112;-91
2021/07/30 09:59:24;;;;;;;7.38;2.42;;;;;;;;;;5037746;28;20084;-91
2021/07/30 10:01:50;;;;;;;7.43;2.33;;;;;;;;;;5037406;28;20381;-87
2021/07/30 10:04:20;;;;;;;3.75;1.80;;;;;;;;;;5036817;28;20398;-92
2021/07/30 10:06:46;;;;;;;3.10;1.83;;;;;;;;;;5037325;28;20147;-92
2021/07/30 10:09:12;;;;;;;4.43;2.00;;;;;;;;;;5037474;28;20036;-90
2021/07/30 10:11:39;;;;;;;3.25;2.05;;;;;;;;;;5037195;28;20035;-92
2021/07/30 10:14:06;;;;;;;3.53;2.08;;;;;;;;;;5037363;28;20075;-92
2021/07/30 10:16:36;;;;;;;11.05;1.95;;;;;;;;;;5037245;28;20477;-92
2021/07/30 10:19:04;;;;;;;4.55;1.85;;;;;;;;;;5036858;28;20033;-81
2021/07/30 10:21:33;;;;;;;4.10;1.90;;;;;;;;;;5036837;28;20032;-90
2021/07/30 10:23:59;;;;;;;3.92;1.90;;;;;;;;;;5036934;28;20041;-89
2021/07/30 10:26:26;;;;;;;6.00;2.00;;;;;;;;;;5036890;28;20026;-92
2021/07/30 10:28:57;;;;;;;4.95;2.28;;;;;;;;;;5036600;28;20026;-91
2021/07/30 10:31:43;;;;;;;3.10;2.00;;;;;;;;;;5036817;28;20059;-91
2021/07/30 10:34:09;;;;;;;7.55;2.10;;;;;;;;;;5036828;28;20057;-91
2021/07/30 10:36:37;;;;;;;12.90;2.38;;;;;;;;;;5036950;28;20440;-90
2021/07/30 10:39:11;;;;;;;9.57;2.78;;;;;;;;;;5037436;28;20022;-91
2021/07/30 10:41:39;;;;;;;16.88;2.83;;;;;;;;;;5036496;28;20474;-92
2021/07/30 10:44:06;;;;;;;3.38;2.15;;;;;;;;;;5036054;28;20063;-92
2021/07/30 10:46:32;;;;;;;4.80;2.65;;;;;;;;;;5036928;28;20038;-90
2021/07/30 10:48:58;;;;;;;3.72;2.33;;;;;;;;;;5036683;28;20474;-93
2021/07/30 10:51:28;;;;;;;6.25;2.15;;;;;;;;;;5036393;28;20034;-91
2021/07/30 10:54:01;;;;;;;4.65;2.30;;;;;;;;;;5036508;28;20044;-91
2021/07/30 10:56:30;;;;;;;4.60;1.98;;;;;;;;;;5036670;28;20060;-89
2021/07/30 10:58:59;;;;;;;5.13;1.85;;;;;;;;;;5037517;28;20033;-91
2021/07/30 11:01:28;;;;;;;5.13;2.40;;;;;;;;;;5036083;28;20018;-92
2021/07/30 11:03:56;;;;;;;9.57;2.92;;;;;;;;;;5037464;28;20076;-90
2021/07/30 11:06:26;;;;;;;4.30;2.58;;;;;;;;;;5037517;28;20434;-91
2021/07/30 11:09:05;;;;;;;9.05;2.60;;;;;;;;;;5035401;28;20040;-86
2021/07/30 11:11:40;;;;;;;4.38;2.63;;;;;;;;;;5034727;28;20504;-82
2021/07/30 11:14:11;;;;;;;5.90;2.72;;;;;;;;;;5034936;28;20025;-83
2021/07/30 11:16:37;;;;;;;7.82;2.65;;;;;;;;;;5035207;28;20026;-82
2021/07/30 11:19:04;;;;;;;9.32;2.97;;;;;;;;;;5034749;28;20041;-82
2021/07/30 11:21:31;;;;;;;4.28;2.97;;;;;;;;;;5034640;28;20036;-82
2021/07/30 11:23:57;;;;;;;5.32;2.97;;;;;;;;;;5035776;28;20040;-83
2021/07/30 11:26:24;;;;;;;5.53;2.75;;;;;;;;;;5035061;28;20032;-83
2021/07/30 11:28:57;;;;;;;4.70;2.67;;;;;;;;;;5034052;28;20025;-84
2021/07/30 11:31:23;;;;;;;5.88;2.53;;;;;;;;;;5033754;28;20032;-82
2021/07/30 11:33:49;;;;;;;3.83;2.60;;;;;;;;;;5017320;28;20097;-84
2021/07/30 11:36:16;;;;;;;6.57;2.88;;;;;;;;;;5014533;28;20399;-83
2021/07/30 11:38:49;;;;;;;10.55;3.35;;;;;;;;;;5014290;28;20470;-82
2021/07/30 11:41:15;;;;;;;5.88;2.80;;;;;;;;;;5014050;28;20478;-83
2021/07/30 11:43:58;;;;;;;4.43;2.83;;;;;;;;;;5014632;28;20549;-82
2021/07/30 11:46:24;;;;;;;5.05;2.70;;;;;;;;;;5014623;28;20026;-84
2021/07/30 11:48:50;;;;;;;11.93;3.10;;;;;;;;;;5014040;28;20088;-84
2021/07/30 11:51:16;;;;;;;8.95;2.72;;;;;;;;;;5013911;28;20033;-86
2021/07/30 11:53:43;;;;;;;5.63;2.60;;;;;;;;;;5030549;28;20041;-83
2021/07/30 11:56:09;;;;;;;4.07;2.75;;;;;;;;;;5032744;28;20063;-84
2021/07/30 11:58:35;;;;;;;3.30;2.28;;;;;;;;;;5031712;28;20030;-83
2021/07/30 12:01:11;;;;;;;4.90;2.92;;;;;;;;;;5014182;28;20026;-87
2021/07/30 12:03:37;;;;;;;6.85;2.90;;;;;;;;;;5014947;28;20056;-89
2021/07/30 12:06:04;;;;;;;4.70;2.60;;;;;;;;;;5014537;28;20483;-90
2021/07/30 12:08:35;;;;;;;6.13;3.35;;;;;;;;;;5015393;28;20356;-86
2021/07/30 12:11:01;;;;;;;3.92;2.63;;;;;;;;;;5019439;28;20405;-89
2021/07/30 12:13:29;;;;;;;5.65;2.85;;;;;;;;;;5033747;28;20025;-87
2021/07/30 12:15:55;;;;;;;6.40;2.47;;;;;;;;;;5034230;28;20531;-82
2021/07/30 12:18:21;;;;;;;7.63;2.70;;;;;;;;;;5033690;28;20021;-88
2021/07/30 12:20:48;;;;;;;5.20;2.72;;;;;;;;;;5034120;28;20083;-88
2021/07/30 12:23:16;;;;;;;6.80;3.03;;;;;;;;;;5033558;28;20029;-90
2021/07/30 12:25:46;;;;;;;4.95;3.10;;;;;;;;;;5033786;28;20033;-88
2021/07/30 12:28:14;;;;;;;5.50;3.03;;;;;;;;;;5018326;28;20513;-87
2021/07/30 12:30:40;;;;;;;5.45;2.60;;;;;;;;;;5034214;28;20104;-90
2021/07/30 12:33:25;;;;;;;3.95;2.40;;;;;;;;;;5034538;28;20029;-87
2021/07/30 12:36:08;;;;;;;4.50;2.50;;;;;;;;;;5034397;28;20029;-87
2021/07/30 12:38:49;;;;;;;4.05;2.65;;;;;;;;;;5033650;28;20025;-85
2021/07/30 12:41:19;;;;;;;6.13;3.15;;;;;;;;;;5033693;28;20021;-89
2021/07/30 12:43:46;;;;;;;4.88;2.65;;;;;;;;;;5034000;28;20029;-86
2021/07/30 12:46:30;;;;;;;8.65;3.13;;;;;;;;;;5033969;28;20089;-88
2021/07/30 12:48:56;;;;;;;6.07;2.65;;;;;;;;;;5016820;28;20024;-84
2021/07/30 12:51:23;;;;;;;4.80;2.70;;;;;;;;;;5014038;28;20048;-87
2021/07/30 12:54:18;;;;;;;4.15;3.10;;;;;;;;;;5013894;28;20033;-83
2021/07/30 12:56:55;;;;;;;5.82;3.00;;;;;;;;;;5010321;28;20041;-83
2021/07/30 12:59:41;;;;;;;4.22;2.78;;;;;;;;;;5013676;28;20041;-85
2021/07/30 13:02:07;;;;;;;5.30;2.95;;;;;;;;;;5013233;28;20026;-82
2021/07/30 13:04:34;;;;;;;5.95;3.05;;;;;;;;;;5012890;28;20045;-87
2021/07/30 13:07:01;;;;;;;7.57;3.38;;;;;;;;;;5024813;28;20084;-91
2021/07/30 13:09:27;;;;;;;4.18;3.08;;;;;;;;;;5027927;28;20026;-84
2021/07/30 13:11:53;;;;;;;15.32;3.42;;;;;;;;;;5012577;28;20030;-81
2021/07/30 13:14:19;;;;;;;5.63;3.33;;;;;;;;;;5012472;28;20034;-81
2021/07/30 13:16:45;;;;;;;5.97;2.50;;;;;;;;;;5012436;28;20051;-84
2021/07/30 13:19:11;;;;;;;8.63;2.80;;;;;;;;;;5013173;28;20038;-84
2021/07/30 13:21:38;;;;;;;4.57;2.63;;;;;;;;;;5012537;28;20067;-81
2021/07/30 13:24:05;;;;;;;7.07;3.50;;;;;;;;;;5013786;28;20034;-82
2021/07/30 13:26:32;;;;;;;5.55;3.00;;;;;;;;;;5012572;28;20383;-82
2021/07/30 13:28:58;;;;;;;6.15;2.60;;;;;;;;;;5013617;28;20061;-82
2021/07/30 13:31:25;;;;;;;4.68;2.95;;;;;;;;;;5019487;28;20097;-80
2021/07/30 13:33:51;;;;;;;5.60;2.80;;;;;;;;;;5018804;28;20098;-82
2021/07/30 13:36:17;;;;;;;4.68;2.53;;;;;;;;;;5016230;28;20029;-81
2021/07/30 13:38:44;;;;;;;8.68;3.15;;;;;;;;;;5017532;28;20022;-81
2021/07/30 13:41:11;;;;;;;3.95;2.53;;;;;;;;;;5017383;28;20505;-81
2021/07/30 13:43:42;;;;;;;5.57;2.88;;;;;;;;;;5016037;28;20032;-84
2021/07/30 13:46:08;;;;;;;7.28;2.90;;;;;;;;;;5016074;28;20101;-81
2021/07/30 13:48:35;;;;;;;4.68;2.53;;;;;;;;;;5017333;28;20383;-81
2021/07/30 13:51:01;;;;;;;5.10;2.78;;;;;;;;;;5017224;28;20025;-81
2021/07/30 13:53:30;;;;;;;4.82;2.70;;;;;;;;;;5017192;28;20021;-82
2021/07/30 13:55:57;;;;;;;5.05;2.47;;;;;;;;;;5015962;28;20061;-83
2021/07/30 13:58:24;;;;;;;4.25;2.53;;;;;;;;;;5017033;28;20068;-81
2021/07/30 14:00:52;;;;;;;8.10;3.00;;;;;;;;;;5016877;28;20032;-81
2021/07/30 14:03:19;;;;;;;6.25;2.67;;;;;;;;;;5015951;28;20037;-80
2021/07/30 14:05:45;;;;;;;22.65;2.92;;;;;;;;;;5015541;28;20120;-81
2021/07/30 14:08:12;;;;;;;4.28;2.35;;;;;;;;;;5017202;28;20018;-78
2021/07/30 14:10:38;;;;;;;8.43;2.47;;;;;;;;;;5033752;28;20028;-82
2021/07/30 14:13:04;;;;;;;8.52;2.45;;;;;;;;;;5035237;28;20119;-82
2021/07/30 14:15:31;;;;;;;5.38;2.22;;;;;;;;;;5036503;28;20040;-82
2021/07/30 14:17:58;;;;;;;4.22;2.17;;;;;;;;;;5037125;28;20021;-83
2021/07/30 14:20:24;;;;;;;3.05;1.77;;;;;;;;;;5035902;28;20099;-82
2021/07/30 14:22:50;;;;;;;5.60;2.25;;;;;;;;;;5034637;28;20025;-82
2021/07/30 14:25:16;;;;;;;5.93;2.10;;;;;;;;;;5034674;28;20529;-81
2021/07/30 14:27:43;;;;;;;4.13;2.00;;;;;;;;;;5034916;28;20119;-83
2021/07/30 14:30:09;;;;;;;4.18;2.40;;;;;;;;;;5036051;28;20392;-88
2021/07/30 14:32:35;;;;;;;3.13;2.00;;;;;;;;;;5035225;28;20053;-83
2021/07/30 14:35:01;;;;;;;3.80;2.30;;;;;;;;;;5035918;28;20030;-82
2021/07/30 14:37:27;;;;;;;6.03;2.40;;;;;;;;;;5016737;28;20030;-86
2021/07/30 14:39:53;;;;;;;4.18;2.05;;;;;;;;;;5015369;28;20041;-86
2021/07/30 14:42:20;;;;;;;6.00;2.53;;;;;;;;;;5015596;28;20049;-84
2021/07/30 14:44:46;;;;;;;3.53;2.40;;;;;;;;;;5016022;28;20042;-86
2021/07/30 14:47:12;;;;;;;3.85;2.50;;;;;;;;;;5016454;28;20356;-82
2021/07/30 14:49:39;;;;;;;4.05;2.65;;;;;;;;;;5034295;28;20059;-82